sensor_id;sensor_type;location;lat;lon;timestamp;pressure;altitude;pressure_sealevel;temperature;humidity
70250;BME280;57644;48.416;-123.374;2022-07-29T00:01:35;101278.65;;;15.14;62.33
70250;BME280;57644;48.416;-123.374;2022-07-29T00:04:05;101282.41;;;15.13;62.86
70250;BME280;57644;48.416;-123.374;2022-07-29T00:06:36;101276.73;;;15.14;62.71
70250;BME280;57644;48.416;-123.374;2022-07-29T00:09:06;101270.93;;;15.16;62.40
70250;BME280;57644;48.416;-123.374;2022-07-29T00:11:36;101270.83;;;15.15;62.24
70250;BME280;57644;48.416;-123.374;2022-07-29T00:14:07;101273.79;;;15.18;62.29
70250;BME280;57644;48.416;-123.374;2022-07-29T00:16:37;101267.46;;;15.20;62.39
70250;BME280;57644;48.416;-123.374;2022-07-29T00:19:07;101267.15;;;15.21;62.64
70250;BME280;57644;48.416;-123.374;2022-07-29T00:21:45;101261.46;;;15.21;62.29
70250;BME280;57644;48.416;-123.374;2022-07-29T00:24:08;101257.73;;;15.19;62.39
70250;BME280;57644;48.416;-123.374;2022-07-29T00:26:38;101252.83;;;15.18;62.52
70250;BME280;57644;48.416;-123.374;2022-07-29T00:29:08;101247.36;;;15.12;62.62
70250;BME280;57644;48.416;-123.374;2022-07-29T00:31:39;101247.75;;;14.99;62.57
70250;BME280;57644;48.416;-123.374;2022-07-29T00:34:09;101250.91;;;14.93;62.31
70250;BME280;57644;48.416;-123.374;2022-07-29T00:36:39;101248.90;;;14.94;62.24
70250;BME280;57644;48.416;-123.374;2022-07-29T00:39:09;101246.22;;;14.85;62.47
70250;BME280;57644;48.416;-123.374;2022-07-29T00:41:40;101246.76;;;14.78;62.57
70250;BME280;57644;48.416;-123.374;2022-07-29T00:44:10;101244.63;;;14.66;63.06
70250;BME280;57644;48.416;-123.374;2022-07-29T00:46:40;101246.99;;;14.56;63.39
70250;BME280;57644;48.416;-123.374;2022-07-29T00:49:10;101246.55;;;14.57;63.33
70250;BME280;57644;48.416;-123.374;2022-07-29T00:51:41;101246.56;;;14.60;63.59
70250;BME280;57644;48.416;-123.374;2022-07-29T00:54:17;101245.97;;;14.61;63.80
70250;BME280;57644;48.416;-123.374;2022-07-29T00:56:43;101244.19;;;14.57;63.67
70250;BME280;57644;48.416;-123.374;2022-07-29T00:59:13;101238.77;;;14.54;63.63
70250;BME280;57644;48.416;-123.374;2022-07-29T01:01:44;101237.62;;;14.37;64.46
70250;BME280;57644;48.416;-123.374;2022-07-29T01:04:15;101230.64;;;14.24;65.07
70250;BME280;57644;48.416;-123.374;2022-07-29T01:06:45;101233.47;;;14.23;65.48
70250;BME280;57644;48.416;-123.374;2022-07-29T01:09:16;101231.43;;;14.16;65.87
70250;BME280;57644;48.416;-123.374;2022-07-29T01:11:47;101229.00;;;14.26;65.38
70250;BME280;57644;48.416;-123.374;2022-07-29T01:14:17;101227.15;;;14.36;65.25
70250;BME280;57644;48.416;-123.374;2022-07-29T01:16:53;101226.66;;;14.37;64.74
70250;BME280;57644;48.416;-123.374;2022-07-29T01:21:53;101223.02;;;14.23;63.87
70250;BME280;57644;48.416;-123.374;2022-07-29T01:24:35;101220.27;;;14.19;64.13
70250;BME280;57644;48.416;-123.374;2022-07-29T01:29:26;101215.08;;;13.97;64.26
70250;BME280;57644;48.416;-123.374;2022-07-29T01:31:56;101217.58;;;13.85;64.75
70250;BME280;57644;48.416;-123.374;2022-07-29T01:34:23;101217.12;;;13.77;64.94
70250;BME280;57644;48.416;-123.374;2022-07-29T01:36:57;101212.93;;;13.74;64.83
70250;BME280;57644;48.416;-123.374;2022-07-29T01:39:26;101209.51;;;13.65;64.83
70250;BME280;57644;48.416;-123.374;2022-07-29T01:41:58;101211.75;;;13.60;64.51
70250;BME280;57644;48.416;-123.374;2022-07-29T01:44:28;101206.65;;;13.55;64.28
70250;BME280;57644;48.416;-123.374;2022-07-29T01:46:59;101202.28;;;13.49;64.83
70250;BME280;57644;48.416;-123.374;2022-07-29T01:49:27;101197.33;;;13.45;65.67
70250;BME280;57644;48.416;-123.374;2022-07-29T01:51:57;101195.53;;;13.43;66.85
70250;BME280;57644;48.416;-123.374;2022-07-29T01:54:30;101194.42;;;13.48;66.53
70250;BME280;57644;48.416;-123.374;2022-07-29T01:56:56;101193.36;;;13.48;66.23
70250;BME280;57644;48.416;-123.374;2022-07-29T01:59:25;101190.91;;;13.33;65.84
70250;BME280;57644;48.416;-123.374;2022-07-29T02:01:57;101186.54;;;13.28;65.48
70250;BME280;57644;48.416;-123.374;2022-07-29T02:04:26;101186.72;;;13.09;66.13
70250;BME280;57644;48.416;-123.374;2022-07-29T02:06:58;101179.86;;;12.94;66.10
70250;BME280;57644;48.416;-123.374;2022-07-29T02:09:26;101177.43;;;12.80;66.14
70250;BME280;57644;48.416;-123.374;2022-07-29T02:11:59;101179.54;;;12.81;66.04
70250;BME280;57644;48.416;-123.374;2022-07-29T02:14:29;101180.41;;;12.81;66.43
70250;BME280;57644;48.416;-123.374;2022-07-29T02:16:59;101174.19;;;12.78;67.52
70250;BME280;57644;48.416;-123.374;2022-07-29T02:19:31;101170.01;;;12.88;67.30
70250;BME280;57644;48.416;-123.374;2022-07-29T02:22:00;101171.78;;;12.92;67.62
70250;BME280;57644;48.416;-123.374;2022-07-29T02:24:30;101168.52;;;12.98;67.60
70250;BME280;57644;48.416;-123.374;2022-07-29T02:27:04;101169.13;;;13.04;67.50
70250;BME280;57644;48.416;-123.374;2022-07-29T02:29:31;101168.22;;;13.09;67.41
70250;BME280;57644;48.416;-123.374;2022-07-29T02:32:01;101160.64;;;13.14;67.45
70250;BME280;57644;48.416;-123.374;2022-07-29T02:34:31;101159.74;;;13.17;67.64
70250;BME280;57644;48.416;-123.374;2022-07-29T02:37:02;101154.15;;;13.15;68.26
70250;BME280;57644;48.416;-123.374;2022-07-29T02:39:32;101153.82;;;13.16;68.63
70250;BME280;57644;48.416;-123.374;2022-07-29T02:44:32;101144.95;;;13.20;69.35
70250;BME280;57644;48.416;-123.374;2022-07-29T02:47:10;101143.46;;;13.25;69.36
70250;BME280;57644;48.416;-123.374;2022-07-29T02:49:37;101140.39;;;13.20;69.17
70250;BME280;57644;48.416;-123.374;2022-07-29T02:52:06;101138.67;;;13.21;69.31
70250;BME280;57644;48.416;-123.374;2022-07-29T02:54:39;101143.37;;;13.18;69.17
70250;BME280;57644;48.416;-123.374;2022-07-29T02:57:09;101143.16;;;13.20;68.82
70250;BME280;57644;48.416;-123.374;2022-07-29T02:59:36;101142.04;;;13.19;68.41
70250;BME280;57644;48.416;-123.374;2022-07-29T03:02:05;101141.86;;;13.17;68.43
70250;BME280;57644;48.416;-123.374;2022-07-29T03:04:35;101139.35;;;13.16;68.62
70250;BME280;57644;48.416;-123.374;2022-07-29T03:07:05;101139.13;;;13.16;68.86
70250;BME280;57644;48.416;-123.374;2022-07-29T03:09:37;101137.42;;;13.12;68.84
70250;BME280;57644;48.416;-123.374;2022-07-29T03:12:06;101133.44;;;13.12;68.95
70250;BME280;57644;48.416;-123.374;2022-07-29T03:14:36;101133.75;;;13.14;68.82
70250;BME280;57644;48.416;-123.374;2022-07-29T03:17:06;101136.58;;;13.17;68.91
70250;BME280;57644;48.416;-123.374;2022-07-29T03:19:37;101133.64;;;13.15;69.44
70250;BME280;57644;48.416;-123.374;2022-07-29T03:22:08;101130.18;;;13.20;69.59
70250;BME280;57644;48.416;-123.374;2022-07-29T03:24:38;101130.19;;;13.25;69.64
70250;BME280;57644;48.416;-123.374;2022-07-29T03:27:09;101131.56;;;13.30;69.33
70250;BME280;57644;48.416;-123.374;2022-07-29T03:29:39;101132.99;;;13.32;69.31
70250;BME280;57644;48.416;-123.374;2022-07-29T03:32:09;101131.88;;;13.36;69.19
70250;BME280;57644;48.416;-123.374;2022-07-29T03:34:39;101132.19;;;13.35;69.16
70250;BME280;57644;48.416;-123.374;2022-07-29T03:37:10;101131.06;;;13.35;68.74
70250;BME280;57644;48.416;-123.374;2022-07-29T03:39:42;101131.48;;;13.28;68.78
70250;BME280;57644;48.416;-123.374;2022-07-29T03:42:13;101130.27;;;13.27;68.55
70250;BME280;57644;48.416;-123.374;2022-07-29T03:44:44;101133.97;;;13.28;68.52
70250;BME280;57644;48.416;-123.374;2022-07-29T03:49:41;101136.39;;;13.16;68.84
70250;BME280;57644;48.416;-123.374;2022-07-29T03:52:12;101134.39;;;13.14;68.53
70250;BME280;57644;48.416;-123.374;2022-07-29T03:54:42;101136.03;;;13.09;68.92
70250;BME280;57644;48.416;-123.374;2022-07-29T03:57:13;101137.60;;;13.05;69.49
70250;BME280;57644;48.416;-123.374;2022-07-29T03:59:44;101132.82;;;13.05;69.78
70250;BME280;57644;48.416;-123.374;2022-07-29T04:02:14;101131.95;;;13.06;70.12
70250;BME280;57644;48.416;-123.374;2022-07-29T04:04:44;101129.27;;;13.04;70.41
70250;BME280;57644;48.416;-123.374;2022-07-29T04:07:16;101129.23;;;13.04;70.83
70250;BME280;57644;48.416;-123.374;2022-07-29T04:09:45;101131.00;;;13.06;71.13
70250;BME280;57644;48.416;-123.374;2022-07-29T04:12:15;101132.54;;;13.09;71.23
70250;BME280;57644;48.416;-123.374;2022-07-29T04:14:46;101136.14;;;13.13;71.55
70250;BME280;57644;48.416;-123.374;2022-07-29T04:17:17;101137.32;;;13.15;71.32
70250;BME280;57644;48.416;-123.374;2022-07-29T04:19:48;101136.65;;;13.18;71.28
70250;BME280;57644;48.416;-123.374;2022-07-29T04:22:18;101136.79;;;13.19;71.10
70250;BME280;57644;48.416;-123.374;2022-07-29T04:24:48;101141.29;;;13.17;71.23
70250;BME280;57644;48.416;-123.374;2022-07-29T04:27:19;101142.10;;;13.19;71.27
70250;BME280;57644;48.416;-123.374;2022-07-29T04:29:49;101137.76;;;13.19;71.05
70250;BME280;57644;48.416;-123.374;2022-07-29T04:32:19;101138.04;;;13.19;71.00
70250;BME280;57644;48.416;-123.374;2022-07-29T04:34:49;101143.13;;;13.17;70.96
70250;BME280;57644;48.416;-123.374;2022-07-29T04:37:24;101145.08;;;13.16;70.86
70250;BME280;57644;48.416;-123.374;2022-07-29T04:39:52;101144.82;;;13.15;70.72
70250;BME280;57644;48.416;-123.374;2022-07-29T04:42:21;101144.02;;;13.14;70.81
70250;BME280;57644;48.416;-123.374;2022-07-29T04:44:50;101146.23;;;13.10;70.90
70250;BME280;57644;48.416;-123.374;2022-07-29T04:47:22;101140.22;;;13.04;71.07
70250;BME280;57644;48.416;-123.374;2022-07-29T04:49:52;101139.91;;;13.00;71.26
70250;BME280;57644;48.416;-123.374;2022-07-29T04:52:23;101144.50;;;13.02;71.22
70250;BME280;57644;48.416;-123.374;2022-07-29T04:54:54;101142.66;;;13.04;71.22
70250;BME280;57644;48.416;-123.374;2022-07-29T04:57:24;101138.44;;;13.03;71.27
70250;BME280;57644;48.416;-123.374;2022-07-29T04:59:55;101140.57;;;13.08;71.19
70250;BME280;57644;48.416;-123.374;2022-07-29T05:02:25;101141.88;;;13.12;71.12
70250;BME280;57644;48.416;-123.374;2022-07-29T05:04:56;101137.97;;;13.12;71.09
70250;BME280;57644;48.416;-123.374;2022-07-29T05:07:26;101139.15;;;13.13;71.01
70250;BME280;57644;48.416;-123.374;2022-07-29T05:09:56;101141.29;;;13.14;71.31
70250;BME280;57644;48.416;-123.374;2022-07-29T05:12:27;101143.21;;;13.11;71.54
70250;BME280;57644;48.416;-123.374;2022-07-29T05:14:58;101147.38;;;13.12;71.39
70250;BME280;57644;48.416;-123.374;2022-07-29T05:17:28;101149.83;;;13.11;71.50
70250;BME280;57644;48.416;-123.374;2022-07-29T05:19:58;101150.55;;;13.14;71.45
70250;BME280;57644;48.416;-123.374;2022-07-29T05:22:28;101149.17;;;13.09;71.64
70250;BME280;57644;48.416;-123.374;2022-07-29T05:24:59;101151.56;;;13.07;71.75
70250;BME280;57644;48.416;-123.374;2022-07-29T05:27:30;101149.57;;;13.09;71.69
70250;BME280;57644;48.416;-123.374;2022-07-29T05:30:00;101151.82;;;13.08;71.68
70250;BME280;57644;48.416;-123.374;2022-07-29T05:32:30;101155.27;;;13.09;71.64
70250;BME280;57644;48.416;-123.374;2022-07-29T05:35:00;101153.63;;;13.06;71.67
70250;BME280;57644;48.416;-123.374;2022-07-29T05:37:31;101154.39;;;13.01;71.68
70250;BME280;57644;48.416;-123.374;2022-07-29T05:40:01;101156.30;;;13.01;71.36
70250;BME280;57644;48.416;-123.374;2022-07-29T05:42:31;101152.00;;;13.01;71.26
70250;BME280;57644;48.416;-123.374;2022-07-29T05:45:02;101161.31;;;13.01;71.15
70250;BME280;57644;48.416;-123.374;2022-07-29T05:47:32;101160.51;;;12.98;71.26
70250;BME280;57644;48.416;-123.374;2022-07-29T05:50:03;101157.52;;;12.98;71.32
70250;BME280;57644;48.416;-123.374;2022-07-29T05:52:33;101156.15;;;12.98;71.27
70250;BME280;57644;48.416;-123.374;2022-07-29T05:55:03;101158.37;;;12.98;71.13
70250;BME280;57644;48.416;-123.374;2022-07-29T05:57:33;101161.54;;;13.00;70.98
70250;BME280;57644;48.416;-123.374;2022-07-29T06:00:05;101156.95;;;12.94;71.03
70250;BME280;57644;48.416;-123.374;2022-07-29T06:02:34;101154.65;;;12.95;70.80
70250;BME280;57644;48.416;-123.374;2022-07-29T06:05:05;101155.55;;;12.92;70.59
70250;BME280;57644;48.416;-123.374;2022-07-29T06:07:35;101159.11;;;12.92;70.38
70250;BME280;57644;48.416;-123.374;2022-07-29T06:10:06;101158.86;;;12.89;70.08
70250;BME280;57644;48.416;-123.374;2022-07-29T06:12:36;101159.79;;;12.83;70.00
70250;BME280;57644;48.416;-123.374;2022-07-29T06:15:08;101161.23;;;12.81;69.95
70250;BME280;57644;48.416;-123.374;2022-07-29T06:17:37;101164.01;;;12.77;69.73
70250;BME280;57644;48.416;-123.374;2022-07-29T06:20:10;101165.00;;;12.75;69.83
70250;BME280;57644;48.416;-123.374;2022-07-29T06:22:38;101164.44;;;12.68;70.03
70250;BME280;57644;48.416;-123.374;2022-07-29T06:25:08;101167.36;;;12.62;70.27
70250;BME280;57644;48.416;-123.374;2022-07-29T06:27:38;101166.37;;;12.58;70.40
70250;BME280;57644;48.416;-123.374;2022-07-29T06:30:10;101170.70;;;12.57;70.59
70250;BME280;57644;48.416;-123.374;2022-07-29T06:32:39;101168.42;;;12.56;70.59
70250;BME280;57644;48.416;-123.374;2022-07-29T06:35:10;101169.76;;;12.55;70.54
70250;BME280;57644;48.416;-123.374;2022-07-29T06:37:40;101170.36;;;12.55;70.54
70250;BME280;57644;48.416;-123.374;2022-07-29T06:40:11;101169.33;;;12.54;70.60
70250;BME280;57644;48.416;-123.374;2022-07-29T06:42:43;101169.59;;;12.50;70.72
70250;BME280;57644;48.416;-123.374;2022-07-29T06:45:12;101170.74;;;12.49;70.54
70250;BME280;57644;48.416;-123.374;2022-07-29T06:47:42;101169.61;;;12.43;70.63
70250;BME280;57644;48.416;-123.374;2022-07-29T06:50:12;101171.10;;;12.37;70.83
70250;BME280;57644;48.416;-123.374;2022-07-29T06:52:42;101170.57;;;12.28;70.90
70250;BME280;57644;48.416;-123.374;2022-07-29T06:55:12;101167.68;;;12.22;71.25
70250;BME280;57644;48.416;-123.374;2022-07-29T06:57:42;101168.40;;;12.24;71.31
70250;BME280;57644;48.416;-123.374;2022-07-29T07:00:14;101169.41;;;12.26;71.31
70250;BME280;57644;48.416;-123.374;2022-07-29T07:02:44;101171.54;;;12.22;71.29
70250;BME280;57644;48.416;-123.374;2022-07-29T07:05:14;101166.42;;;12.22;71.39
70250;BME280;57644;48.416;-123.374;2022-07-29T07:07:44;101167.54;;;12.20;71.33
70250;BME280;57644;48.416;-123.374;2022-07-29T07:10:15;101167.92;;;12.18;71.32
70250;BME280;57644;48.416;-123.374;2022-07-29T07:12:45;101167.36;;;12.15;71.32
70250;BME280;57644;48.416;-123.374;2022-07-29T07:15:15;101168.25;;;12.17;71.01
70250;BME280;57644;48.416;-123.374;2022-07-29T07:17:45;101171.26;;;12.17;70.77
70250;BME280;57644;48.416;-123.374;2022-07-29T07:20:17;101173.31;;;12.15;70.55
70250;BME280;57644;48.416;-123.374;2022-07-29T07:22:47;101172.37;;;12.12;70.41
70250;BME280;57644;48.416;-123.374;2022-07-29T07:25:17;101171.54;;;12.01;70.32
70250;BME280;57644;48.416;-123.374;2022-07-29T07:27:47;101168.70;;;11.95;70.34
70250;BME280;57644;48.416;-123.374;2022-07-29T07:30:18;101174.64;;;11.83;70.65
70250;BME280;57644;48.416;-123.374;2022-07-29T07:32:48;101179.37;;;11.82;70.67
70250;BME280;57644;48.416;-123.374;2022-07-29T07:35:18;101179.25;;;11.79;70.62
70250;BME280;57644;48.416;-123.374;2022-07-29T07:37:49;101176.33;;;11.73;70.62
70250;BME280;57644;48.416;-123.374;2022-07-29T07:40:19;101175.15;;;11.62;71.03
70250;BME280;57644;48.416;-123.374;2022-07-29T07:42:49;101174.89;;;11.55;71.27
70250;BME280;57644;48.416;-123.374;2022-07-29T07:45:19;101185.55;;;11.46;71.76
70250;BME280;57644;48.416;-123.374;2022-07-29T07:47:50;101187.66;;;11.43;71.84
70250;BME280;57644;48.416;-123.374;2022-07-29T07:50:20;101179.52;;;11.43;71.73
70250;BME280;57644;48.416;-123.374;2022-07-29T07:52:52;101172.52;;;11.38;71.71
70250;BME280;57644;48.416;-123.374;2022-07-29T07:55:21;101174.63;;;11.30;72.07
70250;BME280;57644;48.416;-123.374;2022-07-29T07:57:51;101181.48;;;11.25;72.30
70250;BME280;57644;48.416;-123.374;2022-07-29T08:00:22;101187.09;;;11.28;72.38
70250;BME280;57644;48.416;-123.374;2022-07-29T08:02:52;101187.44;;;11.27;72.30
70250;BME280;57644;48.416;-123.374;2022-07-29T08:05:22;101181.70;;;11.18;72.47
70250;BME280;57644;48.416;-123.374;2022-07-29T08:07:53;101175.96;;;11.06;72.87
70250;BME280;57644;48.416;-123.374;2022-07-29T08:10:24;101181.24;;;10.98;73.47
70250;BME280;57644;48.416;-123.374;2022-07-29T08:12:54;101192.80;;;11.00;73.32
70250;BME280;57644;48.416;-123.374;2022-07-29T08:15:26;101188.69;;;11.03;73.16
70250;BME280;57644;48.416;-123.374;2022-07-29T08:17:54;101186.80;;;10.99;73.30
70250;BME280;57644;48.416;-123.374;2022-07-29T08:20:26;101185.36;;;10.85;74.01
70250;BME280;57644;48.416;-123.374;2022-07-29T08:22:56;101190.12;;;10.83;74.16
70250;BME280;57644;48.416;-123.374;2022-07-29T08:25:26;101196.20;;;10.84;74.28
70250;BME280;57644;48.416;-123.374;2022-07-29T08:27:56;101194.60;;;10.90;74.25
70250;BME280;57644;48.416;-123.374;2022-07-29T08:30:27;101191.23;;;10.91;74.12
70250;BME280;57644;48.416;-123.374;2022-07-29T08:32:57;101186.01;;;10.86;74.31
70250;BME280;57644;48.416;-123.374;2022-07-29T08:35:28;101191.63;;;10.82;74.57
70250;BME280;57644;48.416;-123.374;2022-07-29T08:37:58;101195.65;;;10.73;74.93
70250;BME280;57644;48.416;-123.374;2022-07-29T08:40:28;101197.67;;;10.68;75.14
70250;BME280;57644;48.416;-123.374;2022-07-29T08:42:59;101196.78;;;10.67;75.21
70250;BME280;57644;48.416;-123.374;2022-07-29T08:45:30;101197.13;;;10.60;75.56
70250;BME280;57644;48.416;-123.374;2022-07-29T08:48:01;101201.36;;;10.56;75.46
70250;BME280;57644;48.416;-123.374;2022-07-29T08:50:30;101207.30;;;10.53;75.60
70250;BME280;57644;48.416;-123.374;2022-07-29T08:53:02;101209.82;;;10.58;75.35
70250;BME280;57644;48.416;-123.374;2022-07-29T08:55:31;101207.66;;;10.51;75.71
70250;BME280;57644;48.416;-123.374;2022-07-29T08:58:02;101205.67;;;10.49;75.78
70250;BME280;57644;48.416;-123.374;2022-07-29T09:00:32;101206.27;;;10.43;75.97
70250;BME280;57644;48.416;-123.374;2022-07-29T09:03:05;101206.00;;;10.32;76.01
70250;BME280;57644;48.416;-123.374;2022-07-29T09:05:34;101200.46;;;10.19;76.35
70250;BME280;57644;48.416;-123.374;2022-07-29T09:08:05;101201.40;;;10.14;76.31
70250;BME280;57644;48.416;-123.374;2022-07-29T09:10:36;101201.74;;;10.03;76.86
70250;BME280;57644;48.416;-123.374;2022-07-29T09:13:04;101204.04;;;10.02;76.78
70250;BME280;57644;48.416;-123.374;2022-07-29T09:15:35;101205.16;;;10.03;76.79
70250;BME280;57644;48.416;-123.374;2022-07-29T09:18:05;101206.65;;;10.03;76.74
70250;BME280;57644;48.416;-123.374;2022-07-29T09:20:36;101206.84;;;9.98;76.87
70250;BME280;57644;48.416;-123.374;2022-07-29T09:23:09;101211.93;;;10.04;76.62
70250;BME280;57644;48.416;-123.374;2022-07-29T09:25:37;101214.51;;;10.05;76.48
70250;BME280;57644;48.416;-123.374;2022-07-29T09:28:08;101217.18;;;9.99;76.61
70250;BME280;57644;48.416;-123.374;2022-07-29T09:30:38;101214.10;;;9.93;76.68
70250;BME280;57644;48.416;-123.374;2022-07-29T09:33:07;101212.83;;;9.93;76.76
70250;BME280;57644;48.416;-123.374;2022-07-29T09:35:38;101218.69;;;10.00;76.50
70250;BME280;57644;48.416;-123.374;2022-07-29T09:38:12;101217.10;;;9.86;76.55
70250;BME280;57644;48.416;-123.374;2022-07-29T09:40:40;101216.36;;;9.83;76.79
70250;BME280;57644;48.416;-123.374;2022-07-29T09:43:13;101212.57;;;9.87;76.57
70250;BME280;57644;48.416;-123.374;2022-07-29T09:45:40;101216.32;;;9.84;76.49
70250;BME280;57644;48.416;-123.374;2022-07-29T09:48:14;101220.22;;;9.78;76.47
70250;BME280;57644;48.416;-123.374;2022-07-29T09:50:42;101227.07;;;9.67;76.73
70250;BME280;57644;48.416;-123.374;2022-07-29T09:53:11;101228.67;;;9.52;77.11
70250;BME280;57644;48.416;-123.374;2022-07-29T09:55:47;101225.51;;;9.53;77.20
70250;BME280;57644;48.416;-123.374;2022-07-29T09:58:16;101225.35;;;9.52;77.01
70250;BME280;57644;48.416;-123.374;2022-07-29T10:00:43;101225.45;;;9.49;77.05
70250;BME280;57644;48.416;-123.374;2022-07-29T10:03:13;101230.35;;;9.45;77.29
70250;BME280;57644;48.416;-123.374;2022-07-29T10:05:44;101231.67;;;9.49;77.16
70250;BME280;57644;48.416;-123.374;2022-07-29T10:08:13;101230.53;;;9.49;77.06
70250;BME280;57644;48.416;-123.374;2022-07-29T10:10:44;101234.66;;;9.52;77.06
70250;BME280;57644;48.416;-123.374;2022-07-29T10:13:15;101232.67;;;9.60;76.80
70250;BME280;57644;48.416;-123.374;2022-07-29T10:15:45;101232.22;;;9.63;76.31
70250;BME280;57644;48.416;-123.374;2022-07-29T10:18:15;101232.74;;;9.56;76.42
70250;BME280;57644;48.416;-123.374;2022-07-29T10:20:46;101237.76;;;9.53;76.49
70250;BME280;57644;48.416;-123.374;2022-07-29T10:23:16;101234.54;;;9.53;76.46
70250;BME280;57644;48.416;-123.374;2022-07-29T10:25:46;101229.92;;;9.60;76.19
70250;BME280;57644;48.416;-123.374;2022-07-29T10:28:17;101228.79;;;9.55;76.19
70250;BME280;57644;48.416;-123.374;2022-07-29T10:30:48;101227.79;;;9.53;76.28
70250;BME280;57644;48.416;-123.374;2022-07-29T10:33:28;101229.42;;;9.50;76.55
70250;BME280;57644;48.416;-123.374;2022-07-29T10:35:59;101227.51;;;9.49;76.43
70250;BME280;57644;48.416;-123.374;2022-07-29T10:41:01;101232.18;;;9.40;76.73
70250;BME280;57644;48.416;-123.374;2022-07-29T10:43:21;101231.36;;;9.36;76.83
70250;BME280;57644;48.416;-123.374;2022-07-29T10:45:54;101228.47;;;9.37;77.00
70250;BME280;57644;48.416;-123.374;2022-07-29T10:48:19;101231.43;;;9.27;77.37
70250;BME280;57644;48.416;-123.374;2022-07-29T10:50:54;101236.08;;;9.27;77.54
70250;BME280;57644;48.416;-123.374;2022-07-29T10:53:20;101238.02;;;9.34;77.30
70250;BME280;57644;48.416;-123.374;2022-07-29T10:55:51;101238.60;;;9.32;77.39
70250;BME280;57644;48.416;-123.374;2022-07-29T10:58:22;101245.04;;;9.32;77.25
70250;BME280;57644;48.416;-123.374;2022-07-29T11:00:53;101242.39;;;9.19;77.96
70250;BME280;57644;48.416;-123.374;2022-07-29T11:05:55;101243.27;;;9.26;77.60
70250;BME280;57644;48.416;-123.374;2022-07-29T11:08:24;101245.73;;;9.13;78.02
70250;BME280;57644;48.416;-123.374;2022-07-29T11:15:54;101247.21;;;9.14;78.10
70250;BME280;57644;48.416;-123.374;2022-07-29T11:18:24;101248.21;;;9.17;77.82
70250;BME280;57644;48.416;-123.374;2022-07-29T11:20:54;101251.82;;;9.14;77.92
70250;BME280;57644;48.416;-123.374;2022-07-29T11:23:26;101253.73;;;9.11;77.99
70250;BME280;57644;48.416;-123.374;2022-07-29T11:28:26;101255.87;;;9.06;78.41
70250;BME280;57644;48.416;-123.374;2022-07-29T11:30:57;101257.29;;;9.12;78.15
70250;BME280;57644;48.416;-123.374;2022-07-29T11:33:31;101254.96;;;9.14;78.00
70250;BME280;57644;48.416;-123.374;2022-07-29T11:38:28;101257.17;;;9.07;77.95
70250;BME280;57644;48.416;-123.374;2022-07-29T11:45:58;101269.24;;;9.00;78.23
70250;BME280;57644;48.416;-123.374;2022-07-29T11:48:29;101267.99;;;8.92;78.40
70250;BME280;57644;48.416;-123.374;2022-07-29T11:50:59;101273.14;;;8.96;78.20
70250;BME280;57644;48.416;-123.374;2022-07-29T11:53:30;101274.37;;;8.96;78.24
70250;BME280;57644;48.416;-123.374;2022-07-29T11:56:00;101275.06;;;8.96;78.31
70250;BME280;57644;48.416;-123.374;2022-07-29T11:58:30;101274.64;;;8.91;78.08
70250;BME280;57644;48.416;-123.374;2022-07-29T12:01:01;101277.46;;;8.76;78.81
70250;BME280;57644;48.416;-123.374;2022-07-29T12:03:30;101278.67;;;8.65;78.90
70250;BME280;57644;48.416;-123.374;2022-07-29T12:06:01;101276.51;;;8.69;78.92
70250;BME280;57644;48.416;-123.374;2022-07-29T12:08:39;101279.93;;;8.55;79.40
70250;BME280;57644;48.416;-123.374;2022-07-29T12:11:02;101281.80;;;8.59;79.21
70250;BME280;57644;48.416;-123.374;2022-07-29T12:13:38;101282.37;;;8.61;78.90
70250;BME280;57644;48.416;-123.374;2022-07-29T12:16:02;101285.87;;;8.62;78.98
70250;BME280;57644;48.416;-123.374;2022-07-29T12:18:33;101287.34;;;8.67;78.69
70250;BME280;57644;48.416;-123.374;2022-07-29T12:21:03;101288.34;;;8.72;78.57
70250;BME280;57644;48.416;-123.374;2022-07-29T12:23:34;101285.76;;;8.77;78.46
70250;BME280;57644;48.416;-123.374;2022-07-29T12:26:05;101284.09;;;8.78;78.45
70250;BME280;57644;48.416;-123.374;2022-07-29T12:28:38;101279.55;;;8.79;78.40
70250;BME280;57644;48.416;-123.374;2022-07-29T12:33:35;101281.45;;;8.85;78.56
70250;BME280;57644;48.416;-123.374;2022-07-29T12:36:06;101281.22;;;8.91;78.56
70250;BME280;57644;48.416;-123.374;2022-07-29T12:38:36;101281.62;;;8.90;78.19
70250;BME280;57644;48.416;-123.374;2022-07-29T12:41:06;101282.07;;;8.94;78.04
70250;BME280;57644;48.416;-123.374;2022-07-29T12:43:37;101278.21;;;8.99;77.93
70250;BME280;57644;48.416;-123.374;2022-07-29T12:46:14;101278.41;;;9.01;78.03
70250;BME280;57644;48.416;-123.374;2022-07-29T12:48:38;101276.20;;;9.03;77.95
70250;BME280;57644;48.416;-123.374;2022-07-29T12:51:08;101273.78;;;9.03;78.02
70250;BME280;57644;48.416;-123.374;2022-07-29T12:53:38;101274.13;;;9.06;78.08
70250;BME280;57644;48.416;-123.374;2022-07-29T12:56:15;101275.70;;;9.09;77.99
70250;BME280;57644;48.416;-123.374;2022-07-29T12:58:41;101275.10;;;9.08;78.32
70250;BME280;57644;48.416;-123.374;2022-07-29T13:01:10;101275.48;;;9.09;78.40
70250;BME280;57644;48.416;-123.374;2022-07-29T13:08:40;101278.24;;;9.31;78.08
70250;BME280;57644;48.416;-123.374;2022-07-29T13:16:11;101271.54;;;9.46;78.24
70250;BME280;57644;48.416;-123.374;2022-07-29T13:18:41;101275.00;;;9.48;78.16
70250;BME280;57644;48.416;-123.374;2022-07-29T13:21:13;101277.15;;;9.49;78.24